sensor_id;sensor_type;location;lat;lon;timestamp;pressure;altitude;pressure_sealevel;temperature;humidity
61571;BME280;47463;49.884;10.010;2022-07-23T00:00:01;101903;;;21.8;62
61571;BME280;47463;49.884;10.010;2022-07-23T00:05:01;101896;;;21.7;62
61571;BME280;47463;49.884;10.010;2022-07-23T00:10:01;101894;;;21.6;63
61571;BME280;47463;49.884;10.010;2022-07-23T00:15:01;101880;;;21.5;63
61571;BME280;47463;49.884;10.010;2022-07-23T00:20:01;101879;;;21.5;63
61571;BME280;47463;49.884;10.010;2022-07-23T00:25:01;101872;;;21.4;64
61571;BME280;47463;49.884;10.010;2022-07-23T00:30:01;101857;;;21.3;64
61571;BME280;47463;49.884;10.010;2022-07-23T00:35:01;101861;;;21.2;64
61571;BME280;47463;49.884;10.010;2022-07-23T00:40:01;101863;;;21;65
61571;BME280;47463;49.884;10.010;2022-07-23T00:45:01;101860;;;20.9;65
61571;BME280;47463;49.884;10.010;2022-07-23T00:50:01;101840;;;20.8;66
61571;BME280;47463;49.884;10.010;2022-07-23T00:55:01;101836;;;20.5;67
61571;BME280;47463;49.884;10.010;2022-07-23T01:00:01;101829;;;20.3;68
61571;BME280;47463;49.884;10.010;2022-07-23T01:05:01;101832;;;20;68
61571;BME280;47463;49.884;10.010;2022-07-23T01:10:01;101820;;;19.9;69
61571;BME280;47463;49.884;10.010;2022-07-23T01:15:01;101819;;;20;68
61571;BME280;47463;49.884;10.010;2022-07-23T01:20:01;101826;;;20.1;68
61571;BME280;47463;49.884;10.010;2022-07-23T01:25:01;101833;;;20.2;68
61571;BME280;47463;49.884;10.010;2022-07-23T01:30:01;101838;;;20;69
61571;BME280;47463;49.884;10.010;2022-07-23T01:35:01;101853;;;20;69
61571;BME280;47463;49.884;10.010;2022-07-23T01:40:01;101856;;;20;69
61571;BME280;47463;49.884;10.010;2022-07-23T01:45:01;101867;;;19.9;69
61571;BME280;47463;49.884;10.010;2022-07-23T01:50:01;101856;;;19.7;70
61571;BME280;47463;49.884;10.010;2022-07-23T01:55:01;101851;;;19.9;69
61571;BME280;47463;49.884;10.010;2022-07-23T02:00:01;101851;;;19.8;69
61571;BME280;47463;49.884;10.010;2022-07-23T02:05:01;101859;;;19.8;70
61571;BME280;47463;49.884;10.010;2022-07-23T02:10:01;101849;;;19.8;69
61571;BME280;47463;49.884;10.010;2022-07-23T02:15:01;101863;;;19.9;70
61571;BME280;47463;49.884;10.010;2022-07-23T02:20:01;101859;;;19.9;70
61571;BME280;47463;49.884;10.010;2022-07-23T02:25:01;101854;;;19.8;70
61571;BME280;47463;49.884;10.010;2022-07-23T02:30:01;101843;;;19.8;70
61571;BME280;47463;49.884;10.010;2022-07-23T02:35:01;101839;;;19.7;71
61571;BME280;47463;49.884;10.010;2022-07-23T02:40:01;101833;;;19.5;71
61571;BME280;47463;49.884;10.010;2022-07-23T02:45:01;101838;;;19.3;72
61571;BME280;47463;49.884;10.010;2022-07-23T02:50:01;101828;;;19.2;72
61571;BME280;47463;49.884;10.010;2022-07-23T02:55:01;101811;;;19.2;72
61571;BME280;47463;49.884;10.010;2022-07-23T03:00:01;101829;;;19.1;72
61571;BME280;47463;49.884;10.010;2022-07-23T03:05:01;101829;;;19;72
61571;BME280;47463;49.884;10.010;2022-07-23T03:10:01;101837;;;19;72
61571;BME280;47463;49.884;10.010;2022-07-23T03:15:01;101833;;;19.1;72
61571;BME280;47463;49.884;10.010;2022-07-23T03:20:01;101838;;;19.1;72
61571;BME280;47463;49.884;10.010;2022-07-23T03:25:01;101832;;;19;73
61571;BME280;47463;49.884;10.010;2022-07-23T03:30:01;101834;;;19.1;73
61571;BME280;47463;49.884;10.010;2022-07-23T03:35:01;101854;;;19;73
61571;BME280;47463;49.884;10.010;2022-07-23T03:40:01;101858;;;18.7;74
61571;BME280;47463;49.884;10.010;2022-07-23T03:45:01;101866;;;18.7;74
61571;BME280;47463;49.884;10.010;2022-07-23T03:50:01;101863;;;19;73
61571;BME280;47463;49.884;10.010;2022-07-23T03:55:01;101866;;;18.9;73
61571;BME280;47463;49.884;10.010;2022-07-23T04:00:01;101879;;;18.7;74
61571;BME280;47463;49.884;10.010;2022-07-23T04:05:01;101885;;;18.7;74
61571;BME280;47463;49.884;10.010;2022-07-23T04:10:01;101896;;;18.8;74
61571;BME280;47463;49.884;10.010;2022-07-23T04:15:01;101907;;;19;74
61571;BME280;47463;49.884;10.010;2022-07-23T04:20:01;101908;;;19;73
61571;BME280;47463;49.884;10.010;2022-07-23T04:25:01;101918;;;19;73
61571;BME280;47463;49.884;10.010;2022-07-23T04:30:01;101919;;;19;74
61571;BME280;47463;49.884;10.010;2022-07-23T04:35:01;101867;;;18.9;74
61571;BME280;47463;49.884;10.010;2022-07-23T04:40:01;101887;;;18.8;75
61571;BME280;47463;49.884;10.010;2022-07-23T04:45:01;101892;;;18.9;75
61571;BME280;47463;49.884;10.010;2022-07-23T04:50:01;101934;;;18.7;76
61571;BME280;47463;49.884;10.010;2022-07-23T04:55:01;101936;;;18.5;76
61571;BME280;47463;49.884;10.010;2022-07-23T05:00:01;101935;;;18.5;77
61571;BME280;47463;49.884;10.010;2022-07-23T05:05:01;101929;;;18.4;77
61571;BME280;47463;49.884;10.010;2022-07-23T05:10:01;101944;;;18.5;76
61571;BME280;47463;49.884;10.010;2022-07-23T05:15:01;101938;;;18.5;76
61571;BME280;47463;49.884;10.010;2022-07-23T05:20:01;101929;;;19.1;75
61571;BME280;47463;49.884;10.010;2022-07-23T05:25:01;101947;;;19.4;74
61571;BME280;47463;49.884;10.010;2022-07-23T05:30:01;101961;;;19.4;74
61571;BME280;47463;49.884;10.010;2022-07-23T05:35:01;101979;;;19.4;75
61571;BME280;47463;49.884;10.010;2022-07-23T05:40:01;101989;;;19.4;75
61571;BME280;47463;49.884;10.010;2022-07-23T05:45:01;102025;;;19.2;75
61571;BME280;47463;49.884;10.010;2022-07-23T05:50:01;102032;;;19;76
61571;BME280;47463;49.884;10.010;2022-07-23T05:55:01;102035;;;19;76
61571;BME280;47463;49.884;10.010;2022-07-23T06:00:01;102043;;;19;76
61571;BME280;47463;49.884;10.010;2022-07-23T06:05:01;102046;;;19;76
61571;BME280;47463;49.884;10.010;2022-07-23T06:10:01;102042;;;19.1;76
61571;BME280;47463;49.884;10.010;2022-07-23T06:15:01;102056;;;19.1;76
61571;BME280;47463;49.884;10.010;2022-07-23T06:20:01;102067;;;19.1;75
61571;BME280;47463;49.884;10.010;2022-07-23T06:25:01;102065;;;19.1;76
61571;BME280;47463;49.884;10.010;2022-07-23T06:30:01;102070;;;19.1;76
61571;BME280;47463;49.884;10.010;2022-07-23T06:35:01;102081;;;18.9;76
61571;BME280;47463;49.884;10.010;2022-07-23T06:40:01;102094;;;19;76
61571;BME280;47463;49.884;10.010;2022-07-23T06:45:01;102094;;;19;76
61571;BME280;47463;49.884;10.010;2022-07-23T06:50:01;102097;;;19;76
61571;BME280;47463;49.884;10.010;2022-07-23T06:55:01;102099;;;19;76
61571;BME280;47463;49.884;10.010;2022-07-23T07:00:01;102111;;;19;76
61571;BME280;47463;49.884;10.010;2022-07-23T07:05:01;102124;;;18.8;77
61571;BME280;47463;49.884;10.010;2022-07-23T07:10:01;102126;;;18.8;77
61571;BME280;47463;49.884;10.010;2022-07-23T07:15:01;102118;;;18.8;77
61571;BME280;47463;49.884;10.010;2022-07-23T07:20:01;102122;;;18.8;78
61571;BME280;47463;49.884;10.010;2022-07-23T07:25:01;102115;;;18.8;78
61571;BME280;47463;49.884;10.010;2022-07-23T07:30:01;102110;;;18.8;77
61571;BME280;47463;49.884;10.010;2022-07-23T07:35:01;102110;;;19;78
61571;BME280;47463;49.884;10.010;2022-07-23T07:40:01;102104;;;19;77
61571;BME280;47463;49.884;10.010;2022-07-23T07:45:01;102122;;;19;76
61571;BME280;47463;49.884;10.010;2022-07-23T07:50:01;102134;;;19.2;76
61571;BME280;47463;49.884;10.010;2022-07-23T07:55:01;102125;;;19.3;76
61571;BME280;47463;49.884;10.010;2022-07-23T08:00:01;102125;;;19.6;76
61571;BME280;47463;49.884;10.010;2022-07-23T08:05:01;102123;;;19.7;75
61571;BME280;47463;49.884;10.010;2022-07-23T08:10:01;102131;;;20.1;75
61571;BME280;47463;49.884;10.010;2022-07-23T08:15:01;102153;;;20.2;73
61571;BME280;47463;49.884;10.010;2022-07-23T08:20:01;102147;;;20.7;73
61571;BME280;47463;49.884;10.010;2022-07-23T08:25:01;102146;;;21.2;71
61571;BME280;47463;49.884;10.010;2022-07-23T08:30:01;102146;;;21.3;71
61571;BME280;47463;49.884;10.010;2022-07-23T08:35:01;102143;;;21.4;70
61571;BME280;47463;49.884;10.010;2022-07-23T08:40:01;102154;;;21.8;70
61571;BME280;47463;49.884;10.010;2022-07-23T08:45:01;102155;;;21.9;69
61571;BME280;47463;49.884;10.010;2022-07-23T08:50:01;102173;;;22;69
61571;BME280;47463;49.884;10.010;2022-07-23T08:55:01;102167;;;22;69
61571;BME280;47463;49.884;10.010;2022-07-23T09:00:01;102149;;;22.2;67
61571;BME280;47463;49.884;10.010;2022-07-23T09:05:01;102134;;;22;67
61571;BME280;47463;49.884;10.010;2022-07-23T09:10:05;102147;;;22;67
61571;BME280;47463;49.884;10.010;2022-07-23T09:15:05;102150;;;22.2;68
61571;BME280;47463;49.884;10.010;2022-07-23T09:20:07;102139;;;22.1;68
61571;BME280;47463;49.884;10.010;2022-07-23T09:25:03;102131;;;22.2;68
61571;BME280;47463;49.884;10.010;2022-07-23T09:30:01;102124;;;22.2;68
61571;BME280;47463;49.884;10.010;2022-07-23T09:35:01;102143;;;22.2;68
61571;BME280;47463;49.884;10.010;2022-07-23T09:40:04;102149;;;22.5;68
61571;BME280;47463;49.884;10.010;2022-07-23T09:45:01;102132;;;22.9;67
61571;BME280;47463;49.884;10.010;2022-07-23T09:50:02;102135;;;23;67
61571;BME280;47463;49.884;10.010;2022-07-23T09:55:01;102119;;;23.2;66
61571;BME280;47463;49.884;10.010;2022-07-23T10:00:03;102121;;;23.3;66
61571;BME280;47463;49.884;10.010;2022-07-23T10:05:01;102100;;;23.5;65
61571;BME280;47463;49.884;10.010;2022-07-23T10:10:01;102103;;;23.4;65
61571;BME280;47463;49.884;10.010;2022-07-23T10:15:01;102106;;;23.8;65
61571;BME280;47463;49.884;10.010;2022-07-23T10:20:01;102107;;;23.9;64
61571;BME280;47463;49.884;10.010;2022-07-23T10:25:05;102090;;;24.5;62
61571;BME280;47463;49.884;10.010;2022-07-23T10:30:02;102089;;;24.4;61
61571;BME280;47463;49.884;10.010;2022-07-23T10:35:03;102084;;;25;60
61571;BME280;47463;49.884;10.010;2022-07-23T10:40:08;102079;;;24.4;61
61571;BME280;47463;49.884;10.010;2022-07-23T10:45:01;102076;;;24.2;62
61571;BME280;47463;49.884;10.010;2022-07-23T10:50:16;102077;;;24.2;62
61571;BME280;47463;49.884;10.010;2022-07-23T10:55:38;102078;;;24.4;62
61571;BME280;47463;49.884;10.010;2022-07-23T11:00:19;102084;;;24.6;62
61571;BME280;47463;49.884;10.010;2022-07-23T11:05:01;102077;;;25.1;60
61571;BME280;47463;49.884;10.010;2022-07-23T11:10:01;102071;;;25.3;60
61571;BME280;47463;49.884;10.010;2022-07-23T11:15:01;102062;;;25.5;58
61571;BME280;47463;49.884;10.010;2022-07-23T11:20:17;102074;;;26.1;57
61571;BME280;47463;49.884;10.010;2022-07-23T11:25:01;102061;;;25.9;56
61571;BME280;47463;49.884;10.010;2022-07-23T11:30:01;102072;;;25.5;57
61571;BME280;47463;49.884;10.010;2022-07-23T11:35:01;102064;;;26;56
61571;BME280;47463;49.884;10.010;2022-07-23T11:40:01;102059;;;25.6;56
61571;BME280;47463;49.884;10.010;2022-07-23T11:45:01;102064;;;26;56
61571;BME280;47463;49.884;10.010;2022-07-23T11:50:02;102059;;;25.7;57
61571;BME280;47463;49.884;10.010;2022-07-23T11:55:02;102059;;;25.6;57
61571;BME280;47463;49.884;10.010;2022-07-23T12:00:02;102057;;;25.4;58
61571;BME280;47463;49.884;10.010;2022-07-23T12:05:01;102054;;;25.4;57
61571;BME280;47463;49.884;10.010;2022-07-23T12:10:03;102049;;;25.4;57
61571;BME280;47463;49.884;10.010;2022-07-23T12:15:01;102050;;;26.2;56
61571;BME280;47463;49.884;10.010;2022-07-23T12:20:03;102048;;;26.5;55
61571;BME280;47463;49.884;10.010;2022-07-23T12:25:02;102033;;;26.1;54
61571;BME280;47463;49.884;10.010;2022-07-23T12:30:33;102029;;;26;55
61571;BME280;47463;49.884;10.010;2022-07-23T12:35:02;102029;;;27;54
61571;BME280;47463;49.884;10.010;2022-07-23T12:40:33;102024;;;26.6;53
61571;BME280;47463;49.884;10.010;2022-07-23T12:45:03;102023;;;26.1;54
61571;BME280;47463;49.884;10.010;2022-07-23T12:50:01;102024;;;26;54
61571;BME280;47463;49.884;10.010;2022-07-23T12:55:01;102014;;;26.2;53
61571;BME280;47463;49.884;10.010;2022-07-23T13:00:07;102012;;;26.9;52
61571;BME280;47463;49.884;10.010;2022-07-23T13:05:01;102010;;;26.6;51
61571;BME280;47463;49.884;10.010;2022-07-23T13:10:01;102011;;;26.8;52
61571;BME280;47463;49.884;10.010;2022-07-23T13:15:01;102009;;;26.5;52
61571;BME280;47463;49.884;10.010;2022-07-23T13:20:01;102016;;;26.9;51
61571;BME280;47463;49.884;10.010;2022-07-23T13:25:01;102002;;;27;50
61571;BME280;47463;49.884;10.010;2022-07-23T13:30:01;102002;;;26.8;50
61571;BME280;47463;49.884;10.010;2022-07-23T13:35:01;102008;;;27;50
61571;BME280;47463;49.884;10.010;2022-07-23T13:40:01;102010;;;26.3;50
61571;BME280;47463;49.884;10.010;2022-07-23T13:45:01;102019;;;26.3;50
61571;BME280;47463;49.884;10.010;2022-07-23T13:50:01;102012;;;26.6;50
61571;BME280;47463;49.884;10.010;2022-07-23T13:55:01;102011;;;26.7;50
61571;BME280;47463;49.884;10.010;2022-07-23T14:00:01;102010;;;26.5;49
61571;BME280;47463;49.884;10.010;2022-07-23T14:05:01;102007;;;26.8;48
61571;BME280;47463;49.884;10.010;2022-07-23T14:10:01;101996;;;26.8;48
61571;BME280;47463;49.884;10.010;2022-07-23T14:15:01;102013;;;27.1;47
61571;BME280;47463;49.884;10.010;2022-07-23T14:20:01;101998;;;27.5;47
61571;BME280;47463;49.884;10.010;2022-07-23T14:25:01;102012;;;27.4;46
61571;BME280;47463;49.884;10.010;2022-07-23T14:30:01;102003;;;28.2;44
61571;BME280;47463;49.884;10.010;2022-07-23T14:35:01;102005;;;28;44
61571;BME280;47463;49.884;10.010;2022-07-23T14:40:01;102012;;;27.5;45
61571;BME280;47463;49.884;10.010;2022-07-23T14:45:01;102005;;;27.5;45
61571;BME280;47463;49.884;10.010;2022-07-23T14:50:01;102003;;;26.7;46
61571;BME280;47463;49.884;10.010;2022-07-23T14:55:01;101995;;;26.7;46
61571;BME280;47463;49.884;10.010;2022-07-23T15:00:01;102002;;;27;45
61571;BME280;47463;49.884;10.010;2022-07-23T15:05:01;102007;;;27;45
61571;BME280;47463;49.884;10.010;2022-07-23T15:10:01;102003;;;27.4;45
61571;BME280;47463;49.884;10.010;2022-07-23T15:15:01;101997;;;28;45
61571;BME280;47463;49.884;10.010;2022-07-23T15:20:01;101991;;;28.2;43
61571;BME280;47463;49.884;10.010;2022-07-23T15:25:01;101998;;;28.1;43
61571;BME280;47463;49.884;10.010;2022-07-23T15:30:01;101981;;;28.2;43
61571;BME280;47463;49.884;10.010;2022-07-23T15:35:01;101984;;;27.4;44
61571;BME280;47463;49.884;10.010;2022-07-23T15:40:01;101983;;;27.6;44
61571;BME280;47463;49.884;10.010;2022-07-23T15:45:01;101975;;;27.7;43
61571;BME280;47463;49.884;10.010;2022-07-23T15:50:01;101968;;;28.3;42
61571;BME280;47463;49.884;10.010;2022-07-23T15:55:01;101967;;;28.2;42
61571;BME280;47463;49.884;10.010;2022-07-23T16:00:01;101965;;;28.1;42
61571;BME280;47463;49.884;10.010;2022-07-23T16:05:01;101957;;;27.9;42
61571;BME280;47463;49.884;10.010;2022-07-23T16:10:01;101950;;;27.7;41
61571;BME280;47463;49.884;10.010;2022-07-23T16:15:01;101954;;;27.4;41
61571;BME280;47463;49.884;10.010;2022-07-23T16:20:01;101945;;;27.5;41
61571;BME280;47463;49.884;10.010;2022-07-23T16:25:01;101951;;;27.7;40
61571;BME280;47463;49.884;10.010;2022-07-23T16:30:01;101948;;;28;40
61571;BME280;47463;49.884;10.010;2022-07-23T16:35:01;101947;;;27.8;39
61571;BME280;47463;49.884;10.010;2022-07-23T16:40:01;101950;;;28.1;39
61571;BME280;47463;49.884;10.010;2022-07-23T16:45:01;101955;;;27.8;40
61571;BME280;47463;49.884;10.010;2022-07-23T16:50:01;101946;;;28;39
61571;BME280;47463;49.884;10.010;2022-07-23T16:55:01;101953;;;28.4;38
61571;BME280;47463;49.884;10.010;2022-07-23T17:00:01;101943;;;28.3;38
61571;BME280;47463;49.884;10.010;2022-07-23T17:05:01;101955;;;28;38
61571;BME280;47463;49.884;10.010;2022-07-23T17:10:01;101962;;;27.7;39
61571;BME280;47463;49.884;10.010;2022-07-23T17:15:01;101951;;;27.7;39
61571;BME280;47463;49.884;10.010;2022-07-23T17:20:01;101951;;;27.5;40
61571;BME280;47463;49.884;10.010;2022-07-23T17:25:01;101954;;;27.4;40
61571;BME280;47463;49.884;10.010;2022-07-23T17:30:01;101954;;;27.3;40
61571;BME280;47463;49.884;10.010;2022-07-23T17:35:01;101967;;;27.2;40
61571;BME280;47463;49.884;10.010;2022-07-23T17:40:01;101962;;;27.3;40
61571;BME280;47463;49.884;10.010;2022-07-23T17:45:01;101970;;;27.1;41
61571;BME280;47463;49.884;10.010;2022-07-23T17:50:01;101976;;;26.8;41
61571;BME280;47463;49.884;10.010;2022-07-23T17:55:01;101978;;;26.8;42
61571;BME280;47463;49.884;10.010;2022-07-23T18:00:01;101976;;;26.8;42
61571;BME280;47463;49.884;10.010;2022-07-23T18:05:01;101982;;;26.7;42
61571;BME280;47463;49.884;10.010;2022-07-23T18:10:01;101992;;;26.4;43
61571;BME280;47463;49.884;10.010;2022-07-23T18:15:01;101998;;;26.2;44
61571;BME280;47463;49.884;10.010;2022-07-23T18:20:01;102014;;;25.9;46
61571;BME280;47463;49.884;10.010;2022-07-23T18:25:01;102033;;;25.4;47
61571;BME280;47463;49.884;10.010;2022-07-23T18:30:01;102035;;;24.8;49
61571;BME280;47463;49.884;10.010;2022-07-23T18:35:01;102057;;;24.2;52
61571;BME280;47463;49.884;10.010;2022-07-23T18:40:01;102060;;;23.8;53
61571;BME280;47463;49.884;10.010;2022-07-23T18:45:01;102061;;;23.5;54
61571;BME280;47463;49.884;10.010;2022-07-23T18:50:01;102073;;;23.3;54
61571;BME280;47463;49.884;10.010;2022-07-23T18:55:01;102078;;;22.8;56
61571;BME280;47463;49.884;10.010;2022-07-23T19:00:01;102096;;;22.4;58
61571;BME280;47463;49.884;10.010;2022-07-23T19:05:01;102107;;;22;59
61571;BME280;47463;49.884;10.010;2022-07-23T19:10:01;102111;;;22;59
61571;BME280;47463;49.884;10.010;2022-07-23T19:15:01;102113;;;21.9;59
61571;BME280;47463;49.884;10.010;2022-07-23T19:20:01;102124;;;21.7;59
61571;BME280;47463;49.884;10.010;2022-07-23T19:25:01;102133;;;21.5;60
61571;BME280;47463;49.884;10.010;2022-07-23T19:30:01;102149;;;21.2;61
61571;BME280;47463;49.884;10.010;2022-07-23T19:35:01;102161;;;20.8;62
61571;BME280;47463;49.884;10.010;2022-07-23T19:40:01;102169;;;20.7;63
61571;BME280;47463;49.884;10.010;2022-07-23T19:45:01;102181;;;20.6;63
61571;BME280;47463;49.884;10.010;2022-07-23T19:50:01;102186;;;20.6;63
61571;BME280;47463;49.884;10.010;2022-07-23T19:55:01;102200;;;20.3;64
61571;BME280;47463;49.884;10.010;2022-07-23T20:00:01;102202;;;20.3;64
61571;BME280;47463;49.884;10.010;2022-07-23T20:05:01;102212;;;20.1;64
61571;BME280;47463;49.884;10.010;2022-07-23T20:10:01;102216;;;20.1;64
61571;BME280;47463;49.884;10.010;2022-07-23T20:15:01;102223;;;20.4;63
61571;BME280;47463;49.884;10.010;2022-07-23T20:20:01;102233;;;20.4;63
61571;BME280;47463;49.884;10.010;2022-07-23T20:25:01;102243;;;19.8;65
61571;BME280;47463;49.884;10.010;2022-07-23T20:30:01;102244;;;19.6;65
61571;BME280;47463;49.884;10.010;2022-07-23T20:35:01;102234;;;19.5;66
61571;BME280;47463;49.884;10.010;2022-07-23T20:40:01;102248;;;19.8;64
61571;BME280;47463;49.884;10.010;2022-07-23T20:45:01;102256;;;19.8;64
61571;BME280;47463;49.884;10.010;2022-07-23T20:50:02;102264;;;19.9;64
61571;BME280;47463;49.884;10.010;2022-07-23T20:55:01;102267;;;19.9;64
61571;BME280;47463;49.884;10.010;2022-07-23T21:00:01;102275;;;19.7;64
61571;BME280;47463;49.884;10.010;2022-07-23T21:05:01;102281;;;19.7;64
61571;BME280;47463;49.884;10.010;2022-07-23T21:10:01;102277;;;19.5;65
61571;BME280;47463;49.884;10.010;2022-07-23T21:15:01;102287;;;19.4;65
61571;BME280;47463;49.884;10.010;2022-07-23T21:20:01;102293;;;19.3;66
61571;BME280;47463;49.884;10.010;2022-07-23T21:25:01;102301;;;19.1;66
61571;BME280;47463;49.884;10.010;2022-07-23T21:30:01;102300;;;18.9;67
61571;BME280;47463;49.884;10.010;2022-07-23T21:35:01;102290;;;19.1;66
61571;BME280;47463;49.884;10.010;2022-07-23T21:40:01;102300;;;19.7;64
61571;BME280;47463;49.884;10.010;2022-07-23T21:45:01;102300;;;19.7;64
61571;BME280;47463;49.884;10.010;2022-07-23T21:50:01;102296;;;19.7;63
61571;BME280;47463;49.884;10.010;2022-07-23T21:55:01;102297;;;19.9;63
61571;BME280;47463;49.884;10.010;2022-07-23T22:00:01;102298;;;20.2;61
61571;BME280;47463;49.884;10.010;2022-07-23T22:05:01;102314;;;20.5;60
61571;BME280;47463;49.884;10.010;2022-07-23T22:10:01;102315;;;20.7;59
61571;BME280;47463;49.884;10.010;2022-07-23T22:15:01;102327;;;20.9;58
61571;BME280;47463;49.884;10.010;2022-07-23T22:20:01;102332;;;20.9;58
61571;BME280;47463;49.884;10.010;2022-07-23T22:25:01;102341;;;20.8;58
61571;BME280;47463;49.884;10.010;2022-07-23T22:30:01;102348;;;20.7;59
61571;BME280;47463;49.884;10.010;2022-07-23T22:35:01;102351;;;20.6;59
61571;BME280;47463;49.884;10.010;2022-07-23T22:40:01;102344;;;20.4;59
61571;BME280;47463;49.884;10.010;2022-07-23T22:45:01;102340;;;20.3;59
61571;BME280;47463;49.884;10.010;2022-07-23T22:50:01;102351;;;20.2;60
61571;BME280;47463;49.884;10.010;2022-07-23T22:55:01;102358;;;20.3;60
61571;BME280;47463;49.884;10.010;2022-07-23T23:00:01;102377;;;20.3;60
61571;BME280;47463;49.884;10.010;2022-07-23T23:05:01;102376;;;20.2;60
61571;BME280;47463;49.884;10.010;2022-07-23T23:10:01;102381;;;20.2;60
61571;BME280;47463;49.884;10.010;2022-07-23T23:15:01;102389;;;20.3;60
61571;BME280;47463;49.884;10.010;2022-07-23T23:20:01;102379;;;20.2;60
61571;BME280;47463;49.884;10.010;2022-07-23T23:25:01;102381;;;20.1;60
61571;BME280;47463;49.884;10.010;2022-07-23T23:30:01;102380;;;20;61
61571;BME280;47463;49.884;10.010;2022-07-23T23:35:01;102383;;;19.9;61
61571;BME280;47463;49.884;10.010;2022-07-23T23:40:01;102386;;;19.8;61
61571;BME280;47463;49.884;10.010;2022-07-23T23:45:01;102383;;;19.7;62
61571;BME280;47463;49.884;10.010;2022-07-23T23:50:01;102388;;;19.7;62
61571;BME280;47463;49.884;10.010;2022-07-23T23:55:01;102384;;;19.6;62
